sensor_id;sensor_type;location;lat;lon;timestamp;P1;durP1;ratioP1;P2;durP2;ratioP2
50757;SDS011;36732;47.980;11.652;2023-02-08T00:01:51;13.07;;;7.18;;
50757;SDS011;36732;47.980;11.652;2023-02-08T00:04:17;11.57;;;7.07;;
50757;SDS011;36732;47.980;11.652;2023-02-08T00:06:43;10.70;;;7.07;;
50757;SDS011;36732;47.980;11.652;2023-02-08T00:09:08;9.63;;;6.55;;
50757;SDS011;36732;47.980;11.652;2023-02-08T00:11:34;10.20;;;7.13;;
50757;SDS011;36732;47.980;11.652;2023-02-08T00:14:00;11.52;;;7.03;;
50757;SDS011;36732;47.980;11.652;2023-02-08T00:16:26;11.77;;;7.43;;
50757;SDS011;36732;47.980;11.652;2023-02-08T00:18:52;12.05;;;6.90;;
50757;SDS011;36732;47.980;11.652;2023-02-08T00:21:18;11.88;;;7.35;;
50757;SDS011;36732;47.980;11.652;2023-02-08T00:23:44;10.25;;;6.68;;
50757;SDS011;36732;47.980;11.652;2023-02-08T00:26:10;11.32;;;7.18;;
50757;SDS011;36732;47.980;11.652;2023-02-08T00:28:37;11.52;;;6.45;;
50757;SDS011;36732;47.980;11.652;2023-02-08T00:31:02;8.68;;;5.70;;
50757;SDS011;36732;47.980;11.652;2023-02-08T00:33:29;10.07;;;6.50;;
50757;SDS011;36732;47.980;11.652;2023-02-08T00:35:58;9.38;;;6.78;;
50757;SDS011;36732;47.980;11.652;2023-02-08T00:38:25;11.60;;;6.45;;
50757;SDS011;36732;47.980;11.652;2023-02-08T00:40:52;10.57;;;6.43;;
50757;SDS011;36732;47.980;11.652;2023-02-08T00:43:17;14.10;;;6.93;;
50757;SDS011;36732;47.980;11.652;2023-02-08T00:45:43;8.10;;;6.05;;
50757;SDS011;36732;47.980;11.652;2023-02-08T00:48:09;8.68;;;5.93;;
50757;SDS011;36732;47.980;11.652;2023-02-08T00:50:34;12.48;;;6.15;;
50757;SDS011;36732;47.980;11.652;2023-02-08T00:53:00;10.70;;;6.57;;
50757;SDS011;36732;47.980;11.652;2023-02-08T00:55:26;9.15;;;6.03;;
50757;SDS011;36732;47.980;11.652;2023-02-08T00:57:52;10.82;;;6.18;;
50757;SDS011;36732;47.980;11.652;2023-02-08T01:00:17;10.60;;;6.20;;
50757;SDS011;36732;47.980;11.652;2023-02-08T01:02:43;10.35;;;6.65;;
50757;SDS011;36732;47.980;11.652;2023-02-08T01:05:09;10.43;;;5.82;;
50757;SDS011;36732;47.980;11.652;2023-02-08T01:07:35;8.70;;;5.93;;
50757;SDS011;36732;47.980;11.652;2023-02-08T01:10:02;7.38;;;5.57;;
50757;SDS011;36732;47.980;11.652;2023-02-08T01:12:33;9.75;;;6.43;;
50757;SDS011;36732;47.980;11.652;2023-02-08T01:14:59;9.15;;;5.80;;
50757;SDS011;36732;47.980;11.652;2023-02-08T01:17:24;9.18;;;6.07;;
50757;SDS011;36732;47.980;11.652;2023-02-08T01:19:50;8.45;;;5.72;;
50757;SDS011;36732;47.980;11.652;2023-02-08T01:22:16;9.02;;;6.28;;
50757;SDS011;36732;47.980;11.652;2023-02-08T01:24:41;8.80;;;5.22;;
50757;SDS011;36732;47.980;11.652;2023-02-08T01:27:07;9.07;;;5.82;;
50757;SDS011;36732;47.980;11.652;2023-02-08T01:29:33;10.57;;;6.63;;
50757;SDS011;36732;47.980;11.652;2023-02-08T01:31:59;10.00;;;5.97;;
50757;SDS011;36732;47.980;11.652;2023-02-08T01:34:24;13.70;;;6.43;;
50757;SDS011;36732;47.980;11.652;2023-02-08T01:36:50;11.30;;;6.45;;
50757;SDS011;36732;47.980;11.652;2023-02-08T01:39:16;10.38;;;5.95;;
50757;SDS011;36732;47.980;11.652;2023-02-08T01:41:42;10.82;;;6.40;;
50757;SDS011;36732;47.980;11.652;2023-02-08T01:46:38;8.73;;;5.60;;
50757;SDS011;36732;47.980;11.652;2023-02-08T01:52:13;9.10;;;5.85;;
50757;SDS011;36732;47.980;11.652;2023-02-08T01:54:52;9.88;;;6.07;;
50757;SDS011;36732;47.980;11.652;2023-02-08T01:57:24;9.77;;;5.95;;
50757;SDS011;36732;47.980;11.652;2023-02-08T01:59:55;10.27;;;6.07;;
50757;SDS011;36732;47.980;11.652;2023-02-08T02:02:28;10.35;;;6.13;;
50757;SDS011;36732;47.980;11.652;2023-02-08T02:04:55;11.10;;;6.10;;
50757;SDS011;36732;47.980;11.652;2023-02-08T02:07:21;10.52;;;6.45;;
50757;SDS011;36732;47.980;11.652;2023-02-08T02:09:56;9.30;;;6.22;;
50757;SDS011;36732;47.980;11.652;2023-02-08T02:15:03;8.40;;;5.43;;
50757;SDS011;36732;47.980;11.652;2023-02-08T02:17:30;10.45;;;6.07;;
50757;SDS011;36732;47.980;11.652;2023-02-08T02:40:24;8.98;;;5.25;;
50757;SDS011;36732;47.980;11.652;2023-02-08T02:43:00;9.63;;;5.80;;
50757;SDS011;36732;47.980;11.652;2023-02-08T02:46:04;13.10;;;5.63;;
50757;SDS011;36732;47.980;11.652;2023-02-08T02:48:52;11.38;;;5.85;;
50757;SDS011;36732;47.980;11.652;2023-02-08T02:54:13;8.48;;;5.65;;
50757;SDS011;36732;47.980;11.652;2023-02-08T02:56:54;9.95;;;5.43;;
50757;SDS011;36732;47.980;11.652;2023-02-08T03:01:52;9.65;;;5.90;;
50757;SDS011;36732;47.980;11.652;2023-02-08T03:09:50;9.95;;;5.80;;
50757;SDS011;36732;47.980;11.652;2023-02-08T03:15:34;12.05;;;6.43;;
50757;SDS011;36732;47.980;11.652;2023-02-08T03:21:57;7.88;;;5.05;;
50757;SDS011;36732;47.980;11.652;2023-02-08T03:24:31;9.88;;;6.75;;
50757;SDS011;36732;47.980;11.652;2023-02-08T03:29:55;9.48;;;6.55;;
50757;SDS011;36732;47.980;11.652;2023-02-08T03:32:44;10.10;;;6.32;;
50757;SDS011;36732;47.980;11.652;2023-02-08T03:35:38;10.68;;;6.75;;
50757;SDS011;36732;47.980;11.652;2023-02-08T03:38:17;9.13;;;6.28;;
50757;SDS011;36732;47.980;11.652;2023-02-08T03:40:51;10.13;;;6.38;;
50757;SDS011;36732;47.980;11.652;2023-02-08T03:51:05;9.98;;;5.53;;
50757;SDS011;36732;47.980;11.652;2023-02-08T03:53:31;8.32;;;5.60;;
50757;SDS011;36732;47.980;11.652;2023-02-08T03:56:02;9.27;;;5.95;;
50757;SDS011;36732;47.980;11.652;2023-02-08T03:58:56;8.90;;;5.70;;
50757;SDS011;36732;47.980;11.652;2023-02-08T04:01:39;10.35;;;6.20;;
50757;SDS011;36732;47.980;11.652;2023-02-08T04:04:13;11.40;;;6.55;;
50757;SDS011;36732;47.980;11.652;2023-02-08T04:06:41;9.35;;;6.13;;
50757;SDS011;36732;47.980;11.652;2023-02-08T04:09:07;10.65;;;6.65;;
50757;SDS011;36732;47.980;11.652;2023-02-08T04:11:33;10.88;;;6.68;;
50757;SDS011;36732;47.980;11.652;2023-02-08T04:13:58;13.63;;;8.05;;
50757;SDS011;36732;47.980;11.652;2023-02-08T04:16:24;11.20;;;6.68;;
50757;SDS011;36732;47.980;11.652;2023-02-08T04:18:50;10.98;;;6.57;;
50757;SDS011;36732;47.980;11.652;2023-02-08T04:21:15;10.27;;;6.30;;
50757;SDS011;36732;47.980;11.652;2023-02-08T04:23:41;11.30;;;6.32;;
50757;SDS011;36732;47.980;11.652;2023-02-08T04:26:07;13.07;;;7.13;;
50757;SDS011;36732;47.980;11.652;2023-02-08T04:28:33;9.18;;;6.15;;
50757;SDS011;36732;47.980;11.652;2023-02-08T04:30:59;10.88;;;6.63;;
50757;SDS011;36732;47.980;11.652;2023-02-08T04:33:25;9.60;;;6.47;;
50757;SDS011;36732;47.980;11.652;2023-02-08T04:35:50;11.00;;;7.22;;
50757;SDS011;36732;47.980;11.652;2023-02-08T04:38:16;9.25;;;6.53;;
50757;SDS011;36732;47.980;11.652;2023-02-08T04:40:42;11.27;;;7.45;;
50757;SDS011;36732;47.980;11.652;2023-02-08T04:43:08;11.35;;;7.22;;
50757;SDS011;36732;47.980;11.652;2023-02-08T04:45:33;11.57;;;7.22;;
50757;SDS011;36732;47.980;11.652;2023-02-08T04:48:00;12.88;;;7.75;;
50757;SDS011;36732;47.980;11.652;2023-02-08T04:50:26;11.80;;;7.68;;
50757;SDS011;36732;47.980;11.652;2023-02-08T04:52:52;11.68;;;7.30;;
50757;SDS011;36732;47.980;11.652;2023-02-08T04:55:18;11.68;;;7.13;;
50757;SDS011;36732;47.980;11.652;2023-02-08T04:57:44;13.45;;;8.55;;
50757;SDS011;36732;47.980;11.652;2023-02-08T05:00:09;12.15;;;7.80;;
50757;SDS011;36732;47.980;11.652;2023-02-08T05:02:36;12.68;;;7.68;;
50757;SDS011;36732;47.980;11.652;2023-02-08T05:05:02;12.57;;;7.85;;
50757;SDS011;36732;47.980;11.652;2023-02-08T05:07:28;12.13;;;7.82;;
50757;SDS011;36732;47.980;11.652;2023-02-08T05:09:54;14.25;;;8.13;;
50757;SDS011;36732;47.980;11.652;2023-02-08T05:12:19;12.80;;;8.25;;
50757;SDS011;36732;47.980;11.652;2023-02-08T05:14:45;15.50;;;7.55;;
50757;SDS011;36732;47.980;11.652;2023-02-08T05:17:11;14.10;;;8.15;;
50757;SDS011;36732;47.980;11.652;2023-02-08T05:19:36;13.35;;;7.50;;
50757;SDS011;36732;47.980;11.652;2023-02-08T05:22:02;13.98;;;8.32;;
50757;SDS011;36732;47.980;11.652;2023-02-08T05:24:28;12.95;;;7.80;;
50757;SDS011;36732;47.980;11.652;2023-02-08T05:26:53;12.52;;;7.47;;
50757;SDS011;36732;47.980;11.652;2023-02-08T05:29:19;13.00;;;8.38;;
50757;SDS011;36732;47.980;11.652;2023-02-08T05:31:45;13.65;;;8.65;;
50757;SDS011;36732;47.980;11.652;2023-02-08T05:34:10;13.02;;;7.63;;
50757;SDS011;36732;47.980;11.652;2023-02-08T05:36:36;12.32;;;7.50;;
50757;SDS011;36732;47.980;11.652;2023-02-08T05:39:03;12.10;;;8.20;;
50757;SDS011;36732;47.980;11.652;2023-02-08T05:41:29;13.25;;;8.32;;
50757;SDS011;36732;47.980;11.652;2023-02-08T05:43:55;12.48;;;7.47;;
50757;SDS011;36732;47.980;11.652;2023-02-08T05:46:21;12.80;;;7.35;;
50757;SDS011;36732;47.980;11.652;2023-02-08T05:48:47;11.40;;;7.25;;
50757;SDS011;36732;47.980;11.652;2023-02-08T05:51:13;11.90;;;7.25;;
50757;SDS011;36732;47.980;11.652;2023-02-08T05:53:39;14.05;;;8.98;;
50757;SDS011;36732;47.980;11.652;2023-02-08T05:56:05;9.60;;;6.43;;
50757;SDS011;36732;47.980;11.652;2023-02-08T05:58:32;11.40;;;7.10;;
50757;SDS011;36732;47.980;11.652;2023-02-08T06:00:57;13.55;;;7.13;;
50757;SDS011;36732;47.980;11.652;2023-02-08T06:03:23;12.88;;;7.65;;
50757;SDS011;36732;47.980;11.652;2023-02-08T06:05:49;13.02;;;8.27;;
50757;SDS011;36732;47.980;11.652;2023-02-08T06:08:15;11.52;;;7.32;;
50757;SDS011;36732;47.980;11.652;2023-02-08T06:10:40;11.93;;;7.78;;
50757;SDS011;36732;47.980;11.652;2023-02-08T06:13:07;14.52;;;7.97;;
50757;SDS011;36732;47.980;11.652;2023-02-08T06:15:32;13.57;;;6.70;;
50757;SDS011;36732;47.980;11.652;2023-02-08T06:17:58;10.90;;;7.45;;
50757;SDS011;36732;47.980;11.652;2023-02-08T06:20:24;12.93;;;7.82;;
50757;SDS011;36732;47.980;11.652;2023-02-08T06:22:50;12.43;;;8.10;;
50757;SDS011;36732;47.980;11.652;2023-02-08T06:25:15;13.13;;;7.70;;
50757;SDS011;36732;47.980;11.652;2023-02-08T06:27:41;11.60;;;7.25;;
50757;SDS011;36732;47.980;11.652;2023-02-08T06:30:07;11.07;;;7.32;;
50757;SDS011;36732;47.980;11.652;2023-02-08T06:32:33;13.82;;;7.78;;
50757;SDS011;36732;47.980;11.652;2023-02-08T06:34:59;11.85;;;6.80;;
50757;SDS011;36732;47.980;11.652;2023-02-08T06:37:25;11.90;;;7.53;;
50757;SDS011;36732;47.980;11.652;2023-02-08T06:39:51;11.30;;;7.45;;
50757;SDS011;36732;47.980;11.652;2023-02-08T06:42:16;12.88;;;8.15;;
50757;SDS011;36732;47.980;11.652;2023-02-08T06:44:42;12.13;;;7.95;;
50757;SDS011;36732;47.980;11.652;2023-02-08T06:47:08;12.77;;;8.13;;
50757;SDS011;36732;47.980;11.652;2023-02-08T06:49:33;11.95;;;8.02;;
50757;SDS011;36732;47.980;11.652;2023-02-08T06:51:59;12.45;;;7.72;;
50757;SDS011;36732;47.980;11.652;2023-02-08T06:54:25;12.95;;;7.85;;
50757;SDS011;36732;47.980;11.652;2023-02-08T06:56:50;13.82;;;8.43;;
50757;SDS011;36732;47.980;11.652;2023-02-08T06:59:16;12.90;;;8.10;;
50757;SDS011;36732;47.980;11.652;2023-02-08T07:01:42;13.18;;;7.50;;
50757;SDS011;36732;47.980;11.652;2023-02-08T07:04:07;12.48;;;8.48;;
50757;SDS011;36732;47.980;11.652;2023-02-08T07:06:33;11.95;;;7.85;;
50757;SDS011;36732;47.980;11.652;2023-02-08T07:08:59;16.45;;;9.60;;
50757;SDS011;36732;47.980;11.652;2023-02-08T07:11:26;12.07;;;8.45;;
50757;SDS011;36732;47.980;11.652;2023-02-08T07:13:52;14.05;;;8.60;;
50757;SDS011;36732;47.980;11.652;2023-02-08T07:16:19;12.60;;;8.13;;
50757;SDS011;36732;47.980;11.652;2023-02-08T07:18:45;15.23;;;9.50;;
50757;SDS011;36732;47.980;11.652;2023-02-08T07:21:11;17.33;;;9.73;;
50757;SDS011;36732;47.980;11.652;2023-02-08T07:23:37;13.48;;;8.52;;
50757;SDS011;36732;47.980;11.652;2023-02-08T07:26:05;14.13;;;9.35;;
50757;SDS011;36732;47.980;11.652;2023-02-08T07:28:33;12.93;;;8.82;;
50757;SDS011;36732;47.980;11.652;2023-02-08T07:31:03;13.85;;;8.93;;
50757;SDS011;36732;47.980;11.652;2023-02-08T07:33:34;14.95;;;8.88;;
50757;SDS011;36732;47.980;11.652;2023-02-08T07:36:01;12.73;;;8.23;;
50757;SDS011;36732;47.980;11.652;2023-02-08T07:38:29;12.80;;;8.80;;
50757;SDS011;36732;47.980;11.652;2023-02-08T07:40:59;17.80;;;7.78;;
50757;SDS011;36732;47.980;11.652;2023-02-08T07:43:32;14.50;;;9.88;;
50757;SDS011;36732;47.980;11.652;2023-02-08T07:48:38;13.75;;;8.68;;
50757;SDS011;36732;47.980;11.652;2023-02-08T07:51:04;16.63;;;9.43;;
50757;SDS011;36732;47.980;11.652;2023-02-08T07:53:30;14.38;;;9.13;;
50757;SDS011;36732;47.980;11.652;2023-02-08T07:55:56;18.25;;;9.32;;
50757;SDS011;36732;47.980;11.652;2023-02-08T07:58:22;15.95;;;9.85;;
50757;SDS011;36732;47.980;11.652;2023-02-08T08:00:49;12.38;;;8.60;;
50757;SDS011;36732;47.980;11.652;2023-02-08T08:03:14;10.90;;;7.63;;
50757;SDS011;36732;47.980;11.652;2023-02-08T08:05:40;14.07;;;7.35;;
50757;SDS011;36732;47.980;11.652;2023-02-08T08:08:07;12.63;;;8.27;;
50757;SDS011;36732;47.980;11.652;2023-02-08T08:10:34;13.18;;;8.70;;
50757;SDS011;36732;47.980;11.652;2023-02-08T08:12:59;14.73;;;9.30;;
50757;SDS011;36732;47.980;11.652;2023-02-08T08:15:26;11.52;;;8.02;;
50757;SDS011;36732;47.980;11.652;2023-02-08T08:17:52;10.93;;;7.70;;
50757;SDS011;36732;47.980;11.652;2023-02-08T08:20:18;14.50;;;9.80;;
50757;SDS011;36732;47.980;11.652;2023-02-08T08:22:44;15.13;;;8.43;;
50757;SDS011;36732;47.980;11.652;2023-02-08T08:25:10;12.02;;;8.02;;
50757;SDS011;36732;47.980;11.652;2023-02-08T08:27:36;14.77;;;8.95;;
50757;SDS011;36732;47.980;11.652;2023-02-08T08:30:02;14.60;;;9.27;;
50757;SDS011;36732;47.980;11.652;2023-02-08T08:32:31;13.55;;;7.97;;
50757;SDS011;36732;47.980;11.652;2023-02-08T08:34:56;13.20;;;8.80;;
50757;SDS011;36732;47.980;11.652;2023-02-08T08:37:22;14.85;;;9.65;;
50757;SDS011;36732;47.980;11.652;2023-02-08T08:39:48;13.95;;;9.15;;
50757;SDS011;36732;47.980;11.652;2023-02-08T08:42:13;14.27;;;9.27;;
50757;SDS011;36732;47.980;11.652;2023-02-08T08:44:39;13.00;;;8.43;;
50757;SDS011;36732;47.980;11.652;2023-02-08T08:47:05;11.75;;;8.00;;
50757;SDS011;36732;47.980;11.652;2023-02-08T08:49:33;17.02;;;10.48;;
50757;SDS011;36732;47.980;11.652;2023-02-08T08:51:58;14.27;;;9.18;;
50757;SDS011;36732;47.980;11.652;2023-02-08T08:54:24;15.52;;;9.05;;
50757;SDS011;36732;47.980;11.652;2023-02-08T08:56:50;12.30;;;8.45;;
50757;SDS011;36732;47.980;11.652;2023-02-08T08:59:16;14.02;;;9.73;;
50757;SDS011;36732;47.980;11.652;2023-02-08T09:01:41;13.48;;;8.43;;
50757;SDS011;36732;47.980;11.652;2023-02-08T09:04:08;13.57;;;8.77;;
50757;SDS011;36732;47.980;11.652;2023-02-08T09:06:34;15.13;;;9.10;;
50757;SDS011;36732;47.980;11.652;2023-02-08T09:09:01;15.20;;;10.02;;
50757;SDS011;36732;47.980;11.652;2023-02-08T09:11:27;16.67;;;8.55;;
50757;SDS011;36732;47.980;11.652;2023-02-08T09:13:53;12.77;;;8.15;;
50757;SDS011;36732;47.980;11.652;2023-02-08T09:16:20;12.73;;;8.55;;
50757;SDS011;36732;47.980;11.652;2023-02-08T09:18:48;13.02;;;9.07;;
50757;SDS011;36732;47.980;11.652;2023-02-08T09:21:15;12.43;;;9.05;;
50757;SDS011;36732;47.980;11.652;2023-02-08T09:23:44;12.30;;;8.80;;
50757;SDS011;36732;47.980;11.652;2023-02-08T09:26:13;20.10;;;11.35;;
50757;SDS011;36732;47.980;11.652;2023-02-08T09:28:42;17.75;;;11.80;;
50757;SDS011;36732;47.980;11.652;2023-02-08T09:31:09;15.13;;;10.05;;
50757;SDS011;36732;47.980;11.652;2023-02-08T09:33:42;14.27;;;9.98;;
50757;SDS011;36732;47.980;11.652;2023-02-08T09:36:08;15.52;;;11.23;;
50757;SDS011;36732;47.980;11.652;2023-02-08T09:38:34;14.40;;;8.90;;
50757;SDS011;36732;47.980;11.652;2023-02-08T09:41:10;15.02;;;9.13;;
50757;SDS011;36732;47.980;11.652;2023-02-08T09:46:54;16.08;;;9.32;;
50757;SDS011;36732;47.980;11.652;2023-02-08T09:49:27;12.70;;;9.10;;
50757;SDS011;36732;47.980;11.652;2023-02-08T09:52:00;14.07;;;9.80;;
50757;SDS011;36732;47.980;11.652;2023-02-08T09:54:34;14.73;;;9.77;;
50757;SDS011;36732;47.980;11.652;2023-02-08T09:57:04;16.52;;;9.50;;
50757;SDS011;36732;47.980;11.652;2023-02-08T09:59:37;11.93;;;8.07;;
50757;SDS011;36732;47.980;11.652;2023-02-08T10:07:46;11.38;;;8.32;;
50757;SDS011;36732;47.980;11.652;2023-02-08T10:13:24;13.52;;;8.70;;
50757;SDS011;36732;47.980;11.652;2023-02-08T10:16:16;12.52;;;8.73;;
50757;SDS011;36732;47.980;11.652;2023-02-08T10:25:15;12.73;;;8.63;;
50757;SDS011;36732;47.980;11.652;2023-02-08T10:27:56;12.73;;;8.63;;
50757;SDS011;36732;47.980;11.652;2023-02-08T10:30:56;13.57;;;9.23;;
50757;SDS011;36732;47.980;11.652;2023-02-08T10:36:00;13.90;;;8.68;;
50757;SDS011;36732;47.980;11.652;2023-02-08T10:38:26;12.63;;;8.98;;
50757;SDS011;36732;47.980;11.652;2023-02-08T10:40:58;14.95;;;9.50;;
50757;SDS011;36732;47.980;11.652;2023-02-08T10:48:59;17.08;;;10.52;;
50757;SDS011;36732;47.980;11.652;2023-02-08T10:51:31;17.25;;;10.93;;
50757;SDS011;36732;47.980;11.652;2023-02-08T10:53:57;16.05;;;9.75;;
50757;SDS011;36732;47.980;11.652;2023-02-08T10:58:54;13.93;;;9.18;;
50757;SDS011;36732;47.980;11.652;2023-02-08T11:01:24;15.98;;;10.45;;
50757;SDS011;36732;47.980;11.652;2023-02-08T11:04:08;16.02;;;10.77;;
50757;SDS011;36732;47.980;11.652;2023-02-08T11:06:36;14.70;;;9.68;;
50757;SDS011;36732;47.980;11.652;2023-02-08T11:11:54;14.27;;;9.43;;
50757;SDS011;36732;47.980;11.652;2023-02-08T11:14:24;16.33;;;10.40;;
50757;SDS011;36732;47.980;11.652;2023-02-08T11:16:56;18.65;;;11.75;;
50757;SDS011;36732;47.980;11.652;2023-02-08T11:19:31;18.23;;;11.75;;
50757;SDS011;36732;47.980;11.652;2023-02-08T11:22:14;14.70;;;9.35;;
50757;SDS011;36732;47.980;11.652;2023-02-08T11:24:41;15.85;;;10.25;;
50757;SDS011;36732;47.980;11.652;2023-02-08T11:27:33;16.23;;;10.53;;
50757;SDS011;36732;47.980;11.652;2023-02-08T11:32:37;17.42;;;11.10;;
50757;SDS011;36732;47.980;11.652;2023-02-08T11:35:37;17.08;;;11.75;;
50757;SDS011;36732;47.980;11.652;2023-02-08T11:37:58;14.27;;;10.13;;
50757;SDS011;36732;47.980;11.652;2023-02-08T11:40:27;16.20;;;10.48;;
50757;SDS011;36732;47.980;11.652;2023-02-08T11:43:18;17.00;;;11.25;;
50757;SDS011;36732;47.980;11.652;2023-02-08T11:45:56;39.35;;;23.15;;
50757;SDS011;36732;47.980;11.652;2023-02-08T11:48:48;19.02;;;12.60;;
50757;SDS011;36732;47.980;11.652;2023-02-08T11:54:30;15.75;;;11.93;;
50757;SDS011;36732;47.980;11.652;2023-02-08T11:57:09;16.55;;;11.95;;
50757;SDS011;36732;47.980;11.652;2023-02-08T11:59:44;19.13;;;11.48;;
50757;SDS011;36732;47.980;11.652;2023-02-08T12:04:55;20.17;;;13.80;;
50757;SDS011;36732;47.980;11.652;2023-02-08T12:07:23;20.17;;;11.93;;
50757;SDS011;36732;47.980;11.652;2023-02-08T12:10:25;16.13;;;11.30;;
50757;SDS011;36732;47.980;11.652;2023-02-08T12:13:22;16.52;;;11.50;;
50757;SDS011;36732;47.980;11.652;2023-02-08T12:19:29;17.17;;;11.35;;
50757;SDS011;36732;47.980;11.652;2023-02-08T12:22:29;17.67;;;11.57;;
50757;SDS011;36732;47.980;11.652;2023-02-08T12:30:59;18.05;;;11.43;;
50757;SDS011;36732;47.980;11.652;2023-02-08T12:33:43;16.05;;;10.70;;
50757;SDS011;36732;47.980;11.652;2023-02-08T12:42:17;17.55;;;11.50;;
50757;SDS011;36732;47.980;11.652;2023-02-08T12:53:56;15.75;;;11.35;;
50757;SDS011;36732;47.980;11.652;2023-02-08T12:56:30;16.20;;;11.35;;
50757;SDS011;36732;47.980;11.652;2023-02-08T12:59:02;17.85;;;11.60;;
50757;SDS011;36732;47.980;11.652;2023-02-08T13:01:31;16.08;;;10.82;;
50757;SDS011;36732;47.980;11.652;2023-02-08T13:04:10;15.18;;;11.35;;
50757;SDS011;36732;47.980;11.652;2023-02-08T13:06:40;15.60;;;10.77;;
50757;SDS011;36732;47.980;11.652;2023-02-08T13:09:27;16.88;;;12.05;;
50757;SDS011;36732;47.980;11.652;2023-02-08T13:12:13;18.15;;;11.95;;
50757;SDS011;36732;47.980;11.652;2023-02-08T13:14:46;18.73;;;12.43;;
50757;SDS011;36732;47.980;11.652;2023-02-08T13:17:21;20.50;;;12.85;;
50757;SDS011;36732;47.980;11.652;2023-02-08T13:22:52;17.23;;;10.82;;
50757;SDS011;36732;47.980;11.652;2023-02-08T13:25:29;14.80;;;11.18;;
50757;SDS011;36732;47.980;11.652;2023-02-08T13:30:27;15.77;;;10.60;;
50757;SDS011;36732;47.980;11.652;2023-02-08T13:32:53;18.13;;;12.07;;
50757;SDS011;36732;47.980;11.652;2023-02-08T13:35:27;18.23;;;12.23;;
50757;SDS011;36732;47.980;11.652;2023-02-08T13:38:04;20.20;;;13.50;;
50757;SDS011;36732;47.980;11.652;2023-02-08T13:40:44;20.35;;;13.55;;
50757;SDS011;36732;47.980;11.652;2023-02-08T13:43:22;19.25;;;12.48;;
50757;SDS011;36732;47.980;11.652;2023-02-08T13:46:02;18.95;;;13.25;;
50757;SDS011;36732;47.980;11.652;2023-02-08T13:48:43;19.63;;;13.43;;
50757;SDS011;36732;47.980;11.652;2023-02-08T13:56:41;19.48;;;12.43;;
50757;SDS011;36732;47.980;11.652;2023-02-08T13:59:25;19.35;;;13.48;;
50757;SDS011;36732;47.980;11.652;2023-02-08T14:04:43;18.88;;;12.93;;
50757;SDS011;36732;47.980;11.652;2023-02-08T14:16:38;17.30;;;12.02;;
50757;SDS011;36732;47.980;11.652;2023-02-08T14:21:42;16.98;;;11.65;;
50757;SDS011;36732;47.980;11.652;2023-02-08T14:24:22;17.38;;;11.77;;
50757;SDS011;36732;47.980;11.652;2023-02-08T14:27:05;20.13;;;13.18;;
50757;SDS011;36732;47.980;11.652;2023-02-08T14:29:35;18.60;;;12.80;;
50757;SDS011;36732;47.980;11.652;2023-02-08T14:32:02;20.00;;;12.70;;
50757;SDS011;36732;47.980;11.652;2023-02-08T14:34:33;17.52;;;12.18;;
50757;SDS011;36732;47.980;11.652;2023-02-08T14:39:32;18.65;;;12.80;;
50757;SDS011;36732;47.980;11.652;2023-02-08T14:42:01;21.17;;;12.02;;
50757;SDS011;36732;47.980;11.652;2023-02-08T14:50:00;18.88;;;12.20;;
50757;SDS011;36732;47.980;11.652;2023-02-08T14:52:37;18.05;;;13.38;;
50757;SDS011;36732;47.980;11.652;2023-02-08T14:55:22;18.83;;;13.13;;
50757;SDS011;36732;47.980;11.652;2023-02-08T14:57:53;24.58;;;14.93;;
50757;SDS011;36732;47.980;11.652;2023-02-08T15:00:24;18.92;;;12.60;;
50757;SDS011;36732;47.980;11.652;2023-02-08T15:02:57;17.13;;;11.73;;
50757;SDS011;36732;47.980;11.652;2023-02-08T15:05:25;18.35;;;12.32;;
50757;SDS011;36732;47.980;11.652;2023-02-08T15:07:54;16.80;;;11.65;;
50757;SDS011;36732;47.980;11.652;2023-02-08T15:10:23;17.67;;;12.32;;
50757;SDS011;36732;47.980;11.652;2023-02-08T15:12:51;17.35;;;12.48;;
50757;SDS011;36732;47.980;11.652;2023-02-08T15:15:28;18.20;;;12.98;;
50757;SDS011;36732;47.980;11.652;2023-02-08T15:17:58;16.58;;;12.15;;
50757;SDS011;36732;47.980;11.652;2023-02-08T15:20:30;17.75;;;12.20;;
50757;SDS011;36732;47.980;11.652;2023-02-08T15:22:59;18.42;;;11.30;;
50757;SDS011;36732;47.980;11.652;2023-02-08T15:26:02;19.52;;;12.43;;
50757;SDS011;36732;47.980;11.652;2023-02-08T15:28:30;18.33;;;11.82;;
50757;SDS011;36732;47.980;11.652;2023-02-08T15:31:04;18.25;;;12.45;;
50757;SDS011;36732;47.980;11.652;2023-02-08T15:33:39;18.10;;;11.65;;
50757;SDS011;36732;47.980;11.652;2023-02-08T15:38:55;16.52;;;12.10;;
50757;SDS011;36732;47.980;11.652;2023-02-08T15:41:25;18.17;;;12.57;;
50757;SDS011;36732;47.980;11.652;2023-02-08T15:46:48;16.38;;;12.38;;
50757;SDS011;36732;47.980;11.652;2023-02-08T15:49:17;18.75;;;12.25;;
50757;SDS011;36732;47.980;11.652;2023-02-08T15:51:52;17.77;;;10.98;;
50757;SDS011;36732;47.980;11.652;2023-02-08T15:54:21;18.20;;;12.18;;
50757;SDS011;36732;47.980;11.652;2023-02-08T15:56:52;17.33;;;11.43;;
50757;SDS011;36732;47.980;11.652;2023-02-08T15:59:33;16.50;;;11.30;;
50757;SDS011;36732;47.980;11.652;2023-02-08T16:04:53;20.27;;;13.20;;
50757;SDS011;36732;47.980;11.652;2023-02-08T16:07:24;19.45;;;12.93;;
50757;SDS011;36732;47.980;11.652;2023-02-08T16:09:52;19.92;;;13.48;;
50757;SDS011;36732;47.980;11.652;2023-02-08T16:12:20;17.65;;;12.52;;
50757;SDS011;36732;47.980;11.652;2023-02-08T16:14:48;20.58;;;11.45;;
50757;SDS011;36732;47.980;11.652;2023-02-08T16:17:31;19.05;;;12.45;;
50757;SDS011;36732;47.980;11.652;2023-02-08T16:26:16;18.55;;;12.05;;
50757;SDS011;36732;47.980;11.652;2023-02-08T16:28:59;17.55;;;11.88;;
50757;SDS011;36732;47.980;11.652;2023-02-08T16:31:29;14.57;;;9.98;;
50757;SDS011;36732;47.980;11.652;2023-02-08T16:34:01;14.38;;;10.05;;
50757;SDS011;36732;47.980;11.652;2023-02-08T16:36:34;16.95;;;11.93;;
50757;SDS011;36732;47.980;11.652;2023-02-08T16:39:52;14.77;;;9.90;;
50757;SDS011;36732;47.980;11.652;2023-02-08T16:42:26;25.50;;;12.80;;
50757;SDS011;36732;47.980;11.652;2023-02-08T16:44:57;15.77;;;10.68;;
50757;SDS011;36732;47.980;11.652;2023-02-08T16:50:04;15.38;;;11.05;;
50757;SDS011;36732;47.980;11.652;2023-02-08T16:52:31;31.45;;;18.63;;
50757;SDS011;36732;47.980;11.652;2023-02-08T16:54:58;30.73;;;18.70;;
50757;SDS011;36732;47.980;11.652;2023-02-08T16:57:37;19.08;;;13.88;;
50757;SDS011;36732;47.980;11.652;2023-02-08T17:00:11;17.67;;;12.38;;
50757;SDS011;36732;47.980;11.652;2023-02-08T17:02:43;16.08;;;11.18;;
50757;SDS011;36732;47.980;11.652;2023-02-08T17:05:10;16.00;;;11.18;;
50757;SDS011;36732;47.980;11.652;2023-02-08T17:07:36;15.30;;;10.57;;
50757;SDS011;36732;47.980;11.652;2023-02-08T17:10:03;15.63;;;10.45;;
50757;SDS011;36732;47.980;11.652;2023-02-08T17:12:31;14.85;;;10.68;;
50757;SDS011;36732;47.980;11.652;2023-02-08T17:14:56;14.98;;;10.73;;
50757;SDS011;36732;47.980;11.652;2023-02-08T17:17:22;17.17;;;11.52;;
50757;SDS011;36732;47.980;11.652;2023-02-08T17:19:48;14.00;;;9.57;;
50757;SDS011;36732;47.980;11.652;2023-02-08T17:22:14;16.52;;;11.13;;
50757;SDS011;36732;47.980;11.652;2023-02-08T17:24:40;15.95;;;9.95;;
50757;SDS011;36732;47.980;11.652;2023-02-08T17:27:05;15.77;;;11.50;;
50757;SDS011;36732;47.980;11.652;2023-02-08T17:29:34;17.10;;;10.93;;
50757;SDS011;36732;47.980;11.652;2023-02-08T17:32:00;16.73;;;11.82;;